Time;durP1;ratioP1;P1;durP2;ratioP2;P2;SDS_P1;SDS_P2;PMS_P1;PMS_P2;Temp;Humidity;BMP_temperature;BMP_pressure;BME280_temperature;BME280_humidity;BME280_pressure;Samples;Min_cycle;Max_cycle;Signal;HPM_P1;HPM_P2
2023/12/20 00:02:35;;;;;;;5.73;3.70;;;;;;;;;;10359565;28;20202;-75
2023/12/20 00:07:35;;;;;;;4.10;3.70;;;;;;;;;;10359636;28;20193;-75
2023/12/20 00:12:35;;;;;;;3.90;3.50;;;;;;;;;;10359455;28;20552;-76
2023/12/20 00:17:36;;;;;;;3.50;3.20;;;;;;;;;;10358964;28;20308;-75
2023/12/20 00:22:36;;;;;;;4.88;3.45;;;;;;;;;;10358786;28;20498;-75
2023/12/20 00:27:36;;;;;;;4.50;4.10;;;;;;;;;;10358442;28;20703;-75
2023/12/20 00:32:36;;;;;;;5.10;3.63;;;;;;;;;;10358497;28;20202;-75
2023/12/20 00:37:36;;;;;;;4.10;3.70;;;;;;;;;;10354416;28;20244;-76
2023/12/20 00:42:37;;;;;;;3.63;3.33;;;;;;;;;;10357494;28;20197;-76
2023/12/20 00:47:37;;;;;;;4.63;3.00;;;;;;;;;;10358440;28;20251;-76
2023/12/20 00:52:37;;;;;;;3.70;2.90;;;;;;;;;;10357918;28;20452;-75
2023/12/20 00:57:37;;;;;;;3.27;3.00;;;;;;;;;;10354764;28;20205;-75
2023/12/20 01:02:37;;;;;;;3.57;3.00;;;;;;;;;;10357336;28;20575;-75
2023/12/20 01:07:38;;;;;;;3.40;3.00;;;;;;;;;;10352134;28;20197;-75
2023/12/20 01:12:38;;;;;;;4.27;2.80;;;;;;;;;;10372125;28;20201;-75
2023/12/20 01:17:38;;;;;;;2.90;2.57;;;;;;;;;;10356603;28;20225;-75
2023/12/20 01:22:38;;;;;;;2.87;2.63;;;;;;;;;;10356809;28;20231;-75
2023/12/20 01:27:39;;;;;;;3.00;2.37;;;;;;;;;;10355580;28;20248;-75
2023/12/20 01:32:39;;;;;;;3.00;2.23;;;;;;;;;;10356343;28;20547;-75
2023/12/20 01:37:39;;;;;;;2.50;2.30;;;;;;;;;;10356247;28;20483;-75
2023/12/20 01:42:39;;;;;;;3.00;2.70;;;;;;;;;;10355579;28;20224;-75
2023/12/20 01:47:39;;;;;;;2.63;2.20;;;;;;;;;;10356270;28;20201;-75
2023/12/20 01:52:41;;;;;;;2.43;2.23;;;;;;;;;;10355067;28;20436;-75
2023/12/20 01:57:42;;;;;;;2.53;2.20;;;;;;;;;;10355620;28;20482;-75
2023/12/20 02:02:43;;;;;;;2.43;2.10;;;;;;;;;;10353177;28;20597;-75
2023/12/20 02:07:43;;;;;;;2.50;2.28;;;;;;;;;;10354613;28;20190;-75
2023/12/20 02:12:43;;;;;;;2.35;2.15;;;;;;;;;;10354579;28;20624;-75
2023/12/20 02:17:44;;;;;;;2.43;2.23;;;;;;;;;;10353940;28;20197;-75
2023/12/20 02:22:44;;;;;;;1.80;1.70;;;;;;;;;;10354673;28;20200;-75
2023/12/20 02:27:44;;;;;;;2.50;2.03;;;;;;;;;;10353334;28;20236;-74
2023/12/20 02:32:44;;;;;;;2.23;2.07;;;;;;;;;;10353821;28;20178;-75
2023/12/20 02:37:44;;;;;;;2.10;1.90;;;;;;;;;;10353948;28;20753;-75
2023/12/20 02:42:44;;;;;;;1.83;1.73;;;;;;;;;;10353393;28;20204;-75
2023/12/20 02:47:45;;;;;;;2.53;2.00;;;;;;;;;;10349811;28;20517;-75
2023/12/20 02:52:45;;;;;;;2.10;2.00;;;;;;;;;;10351493;28;20247;-75
2023/12/20 02:57:46;;;;;;;2.47;1.87;;;;;;;;;;10348855;28;20221;-74
2023/12/20 03:02:46;;;;;;;2.00;1.80;;;;;;;;;;10352377;28;20193;-74
2023/12/20 03:07:46;;;;;;;1.63;1.53;;;;;;;;;;10352416;28;20289;-74
2023/12/20 03:12:46;;;;;;;2.23;2.03;;;;;;;;;;10352944;28;20204;-75
2023/12/20 03:17:47;;;;;;;1.67;1.57;;;;;;;;;;10353277;28;20589;-75
2023/12/20 03:22:47;;;;;;;1.90;1.80;;;;;;;;;;10352134;28;20193;-75
2023/12/20 03:27:47;;;;;;;1.70;1.60;;;;;;;;;;10352824;28;20671;-75
2023/12/20 03:32:47;;;;;;;1.80;1.70;;;;;;;;;;10361052;28;20196;-75
2023/12/20 03:37:47;;;;;;;2.10;1.40;;;;;;;;;;10360258;28;20224;-75
2023/12/20 03:42:47;;;;;;;1.60;1.50;;;;;;;;;;10360546;28;20201;-75
2023/12/20 03:47:48;;;;;;;1.83;1.73;;;;;;;;;;10359986;28;20570;-75
2023/12/20 03:52:48;;;;;;;1.60;1.50;;;;;;;;;;10358163;28;20250;-75
2023/12/20 03:57:49;;;;;;;1.70;1.60;;;;;;;;;;10359924;28;20213;-75
2023/12/20 04:02:49;;;;;;;2.53;1.45;;;;;;;;;;10360097;28;20505;-75
2023/12/20 04:07:50;;;;;;;1.47;1.37;;;;;;;;;;10359220;28;20197;-75
2023/12/20 04:12:50;;;;;;;1.70;1.60;;;;;;;;;;10357063;28;20244;-75
2023/12/20 04:17:50;;;;;;;1.70;1.60;;;;;;;;;;10355291;28;20255;-75
2023/12/20 04:22:50;;;;;;;1.50;1.40;;;;;;;;;;10358618;28;20693;-76
2023/12/20 04:27:51;;;;;;;1.50;1.40;;;;;;;;;;10358729;28;20563;-75
2023/12/20 04:32:51;;;;;;;4.27;3.90;;;;;;;;;;10358630;28;20213;-75
2023/12/20 04:37:52;;;;;;;3.27;3.07;;;;;;;;;;10358299;28;20234;-75
2023/12/20 04:42:52;;;;;;;2.17;1.97;;;;;;;;;;10357640;28;20197;-75
2023/12/20 04:47:52;;;;;;;1.60;1.50;;;;;;;;;;10357847;28;20186;-75
2023/12/20 04:52:52;;;;;;;5.93;4.70;;;;;;;;;;10357243;28;20680;-75
2023/12/20 04:57:52;;;;;;;1.80;1.70;;;;;;;;;;10356840;28;20224;-75
2023/12/20 05:02:53;;;;;;;2.13;1.93;;;;;;;;;;10357043;28;20510;-75
2023/12/20 05:07:53;;;;;;;1.60;1.50;;;;;;;;;;10356653;28;20441;-75
2023/12/20 05:12:53;;;;;;;2.00;1.90;;;;;;;;;;10356461;28;20695;-76
2023/12/20 05:17:53;;;;;;;1.63;1.53;;;;;;;;;;10355893;28;20217;-75
2023/12/20 05:22:53;;;;;;;1.60;1.50;;;;;;;;;;10353691;28;20361;-75
2023/12/20 05:27:54;;;;;;;1.70;1.60;;;;;;;;;;10358332;28;20267;-75
2023/12/20 05:32:54;;;;;;;1.70;1.60;;;;;;;;;;10357412;28;20280;-75
2023/12/20 05:37:54;;;;;;;1.57;1.47;;;;;;;;;;10358108;28;20346;-76
2023/12/20 05:42:54;;;;;;;1.40;1.40;;;;;;;;;;10357348;28;20699;-75
2023/12/20 05:47:54;;;;;;;1.73;1.63;;;;;;;;;;10357609;28;20201;-75
2023/12/20 05:52:55;;;;;;;1.57;1.47;;;;;;;;;;10356462;28;20185;-75
2023/12/20 05:57:55;;;;;;;1.93;1.83;;;;;;;;;;10357721;28;20572;-75
2023/12/20 06:02:55;;;;;;;1.80;1.70;;;;;;;;;;10356497;28;20677;-75
2023/12/20 06:07:57;;;;;;;1.70;1.60;;;;;;;;;;10356820;28;20826;-76
2023/12/20 06:12:58;;;;;;;1.60;1.50;;;;;;;;;;10357032;28;20201;-75
2023/12/20 06:17:59;;;;;;;1.50;1.40;;;;;;;;;;10355719;28;20313;-75
2023/12/20 06:22:59;;;;;;;1.10;1.10;;;;;;;;;;10340601;28;20205;-75
2023/12/20 06:27:59;;;;;;;1.37;1.33;;;;;;;;;;10333845;28;20345;-76
2023/12/20 06:32:59;;;;;;;1.70;1.60;;;;;;;;;;10333896;28;20252;-75
2023/12/20 06:38:00;;;;;;;1.90;1.80;;;;;;;;;;10333683;28;20210;-75
2023/12/20 06:43:00;;;;;;;1.77;1.67;;;;;;;;;;10333896;28;20503;-75
2023/12/20 06:48:01;;;;;;;5.00;3.70;;;;;;;;;;10334089;28;20233;-75
2023/12/20 06:53:06;;;;;;;3.13;2.50;;;;;;;;;;10349329;28;20251;-75
2023/12/20 06:58:06;;;;;;;2.00;1.80;;;;;;;;;;10355114;28;20225;-75
2023/12/20 07:03:07;;;;;;;2.13;1.93;;;;;;;;;;10354657;28;20181;-75
2023/12/20 07:08:07;;;;;;;2.53;2.33;;;;;;;;;;10352777;28;20562;-75
2023/12/20 07:13:07;;;;;;;3.93;2.90;;;;;;;;;;10354810;28;21000;-75
2023/12/20 07:18:08;;;;;;;3.60;3.30;;;;;;;;;;10354046;28;20244;-75
2023/12/20 07:23:08;;;;;;;4.68;4.20;;;;;;;;;;10354513;28;20197;-75
2023/12/20 07:28:08;;;;;;;5.50;5.00;;;;;;;;;;10345008;28;20240;-75
2023/12/20 07:33:09;;;;;;;6.70;5.67;;;;;;;;;;10350326;28;20209;-75
2023/12/20 07:38:09;;;;;;;6.33;5.50;;;;;;;;;;10354110;28;20475;-75
2023/12/20 07:43:10;;;;;;;8.17;6.10;;;;;;;;;;10353807;28;20198;-75
2023/12/20 07:48:10;;;;;;;5.60;4.97;;;;;;;;;;10354437;28;20456;-75
2023/12/20 07:53:10;;;;;;;5.63;5.03;;;;;;;;;;10353738;28;20284;-75
2023/12/20 07:58:10;;;;;;;4.23;3.73;;;;;;;;;;10334012;28;20651;-75
2023/12/20 08:03:10;;;;;;;7.40;4.00;;;;;;;;;;10345243;28;20174;-75
2023/12/20 08:08:10;;;;;;;5.33;3.50;;;;;;;;;;10354643;28;20678;-75
2023/12/20 08:13:11;;;;;;;3.87;3.50;;;;;;;;;;10354642;28;20502;-75
2023/12/20 08:18:11;;;;;;;5.30;3.40;;;;;;;;;;10357520;28;20217;-75
2023/12/20 08:23:13;;;;;;;6.00;3.03;;;;;;;;;;10361544;28;20672;-75
2023/12/20 08:28:13;;;;;;;4.80;3.00;;;;;;;;;;10366294;28;20241;-75
2023/12/20 08:33:13;;;;;;;3.27;2.77;;;;;;;;;;10359370;28;20225;-76
2023/12/20 08:38:14;;;;;;;4.17;2.33;;;;;;;;;;10363346;28;20217;-76
2023/12/20 08:43:14;;;;;;;5.83;2.00;;;;;;;;;;10364197;28;20200;-76
2023/12/20 08:48:15;;;;;;;5.27;2.50;;;;;;;;;;10360204;28;20713;-75
2023/12/20 08:53:16;;;;;;;2.17;1.77;;;;;;;;;;10352810;28;20247;-75
2023/12/20 08:58:17;;;;;;;6.73;2.33;;;;;;;;;;10339213;28;20214;-76
2023/12/20 09:03:17;;;;;;;3.80;2.00;;;;;;;;;;10351052;28;20189;-76
2023/12/20 09:08:17;;;;;;;5.37;2.30;;;;;;;;;;10369965;28;20474;-76
2023/12/20 09:13:17;;;;;;;4.30;2.37;;;;;;;;;;10354471;28;20204;-77
2023/12/20 09:18:17;;;;;;;3.93;2.27;;;;;;;;;;10357227;28;20297;-77
2023/12/20 09:23:18;;;;;;;4.03;2.20;;;;;;;;;;10350154;28;20559;-76
2023/12/20 09:28:18;;;;;;;7.47;2.00;;;;;;;;;;10352253;28;20347;-76
2023/12/20 09:33:18;;;;;;;4.75;2.10;;;;;;;;;;10358401;28;20218;-77
2023/12/20 09:38:18;;;;;;;2.90;2.03;;;;;;;;;;10355222;28;20733;-76
2023/12/20 09:43:33;;;;;;;6.73;2.47;;;;;;;;;;10347149;28;20197;-76
2023/12/20 09:53:58;;;;;;;3.23;1.57;;;;;;;;;;10347889;28;20205;-77
2023/12/20 09:58:59;;;;;;;3.40;1.93;;;;;;;;;;10357119;28;20726;-75
2023/12/20 10:04:00;;;;;;;3.57;1.80;;;;;;;;;;10357702;28;20190;-75
2023/12/20 10:09:00;;;;;;;7.33;2.90;;;;;;;;;;10351257;28;20360;-74
2023/12/20 10:14:03;;;;;;;5.40;2.03;;;;;;;;;;10350777;28;20190;-75
2023/12/20 10:19:04;;;;;;;2.87;2.10;;;;;;;;;;10350511;28;20218;-74
2023/12/20 10:24:04;;;;;;;3.70;2.97;;;;;;;;;;10354294;28;20193;-74
2023/12/20 10:29:04;;;;;;;6.20;4.10;;;;;;;;;;10347878;28;20295;-73
2023/12/20 10:34:05;;;;;;;7.67;2.93;;;;;;;;;;10350505;28;20205;-74
2023/12/20 10:39:07;;;;;;;8.57;3.30;;;;;;;;;;10353314;28;20690;-74
2023/12/20 10:44:08;;;;;;;5.63;2.60;;;;;;;;;;10333900;28;20189;-74
2023/12/20 10:49:09;;;;;;;6.07;2.40;;;;;;;;;;10353975;28;20196;-75
2023/12/20 10:54:09;;;;;;;5.23;2.70;;;;;;;;;;10350826;28;20203;-74
2023/12/20 10:59:10;;;;;;;5.93;3.00;;;;;;;;;;10355206;28;20227;-74
2023/12/20 11:04:14;;;;;;;4.57;2.63;;;;;;;;;;10356054;28;20189;-74
2023/12/20 11:09:25;;;;;;;5.03;2.20;;;;;;;;;;10355012;28;20197;-75
2023/12/20 11:14:27;;;;;;;3.93;2.20;;;;;;;;;;10349931;28;20201;-75
2023/12/20 11:19:27;;;;;;;3.37;2.20;;;;;;;;;;10349210;28;20221;-74
2023/12/20 11:24:27;;;;;;;4.10;2.17;;;;;;;;;;10353941;28;20201;-74
2023/12/20 11:29:32;;;;;;;4.60;2.10;;;;;;;;;;10354723;28;20324;-74
2023/12/20 11:34:33;;;;;;;4.33;2.23;;;;;;;;;;10353591;28;20205;-74
2023/12/20 11:39:33;;;;;;;4.73;2.10;;;;;;;;;;10351997;28;20223;-74
2023/12/20 11:44:33;;;;;;;7.20;3.63;;;;;;;;;;10346605;28;20640;-74
2023/12/20 11:49:34;;;;;;;7.57;2.60;;;;;;;;;;10351303;28;20749;-74
2023/12/20 11:54:34;;;;;;;5.67;2.03;;;;;;;;;;10353832;28;20200;-74
2023/12/20 11:59:34;;;;;;;4.33;2.80;;;;;;;;;;10336985;28;22155;-74
2023/12/20 12:04:34;;;;;;;7.03;2.40;;;;;;;;;;10335350;28;20194;-74
2023/12/20 12:09:34;;;;;;;9.90;3.03;;;;;;;;;;10337905;28;20220;-72
2023/12/20 12:14:36;;;;;;;5.67;2.23;;;;;;;;;;10337490;28;20205;-72
2023/12/20 12:19:37;;;;;;;7.40;1.50;;;;;;;;;;10351904;28;20550;-71
2023/12/20 12:24:37;;;;;;;6.53;2.10;;;;;;;;;;10358796;28;20189;-72
2023/12/20 12:29:38;;;;;;;3.97;1.63;;;;;;;;;;10362059;28;20808;-72
2023/12/20 12:34:39;;;;;;;4.80;2.90;;;;;;;;;;10342330;28;20197;-72
2023/12/20 12:39:40;;;;;;;4.50;2.60;;;;;;;;;;10358087;28;20698;-72
2023/12/20 12:44:40;;;;;;;4.00;1.60;;;;;;;;;;10351257;28;20202;-72
2023/12/20 12:49:40;;;;;;;3.27;1.90;;;;;;;;;;10340280;28;20193;-72
2023/12/20 12:54:42;;;;;;;3.77;1.97;;;;;;;;;;10353462;28;20753;-72
2023/12/20 12:59:46;;;;;;;6.53;1.93;;;;;;;;;;10345055;28;20217;-72
2023/12/20 13:04:47;;;;;;;3.53;1.80;;;;;;;;;;10335006;28;20194;-72
2023/12/20 13:09:47;;;;;;;8.17;2.67;;;;;;;;;;10343788;28;20251;-71
2023/12/20 13:14:47;;;;;;;3.63;1.83;;;;;;;;;;10356828;28;20224;-72
2023/12/20 13:19:49;;;;;;;7.13;2.23;;;;;;;;;;10345235;28;20213;-73
2023/12/20 13:24:49;;;;;;;5.20;2.27;;;;;;;;;;10348182;28;20612;-72
2023/12/20 13:29:50;;;;;;;5.37;2.10;;;;;;;;;;10356425;28;20239;-72
2023/12/20 13:34:50;;;;;;;3.40;1.60;;;;;;;;;;10354322;28;20763;-73
2023/12/20 13:39:50;;;;;;;3.83;1.90;;;;;;;;;;10354822;28;20767;-72
2023/12/20 13:44:50;;;;;;;5.87;2.10;;;;;;;;;;10354926;28;20185;-73
2023/12/20 13:49:51;;;;;;;5.80;2.80;;;;;;;;;;10346746;28;20890;-72
2023/12/20 13:54:51;;;;;;;8.53;4.20;;;;;;;;;;10351703;28;20197;-73
2023/12/20 13:59:51;;;;;;;7.93;3.40;;;;;;;;;;10354141;28;20314;-73
2023/12/20 14:04:51;;;;;;;6.87;2.20;;;;;;;;;;10356527;28;20194;-72
2023/12/20 14:09:51;;;;;;;6.73;2.03;;;;;;;;;;10355484;28;20202;-72
2023/12/20 14:14:52;;;;;;;4.00;2.03;;;;;;;;;;10353343;28;20272;-72
2023/12/20 14:19:54;;;;;;;5.03;2.10;;;;;;;;;;10350659;28;20233;-72
2023/12/20 14:24:54;;;;;;;2.93;2.00;;;;;;;;;;10345906;28;20645;-73
2023/12/20 14:29:54;;;;;;;5.70;2.43;;;;;;;;;;10344089;28;20232;-73
2023/12/20 14:34:55;;;;;;;14.27;6.47;;;;;;;;;;10356013;28;20683;-73
2023/12/20 14:39:55;;;;;;;4.07;2.40;;;;;;;;;;10355248;28;20485;-74
2023/12/20 14:44:55;;;;;;;2.47;1.93;;;;;;;;;;10352103;28;20277;-76
2023/12/20 14:49:55;;;;;;;5.33;2.00;;;;;;;;;;10353780;28;20443;-76
2023/12/20 14:54:56;;;;;;;6.30;2.27;;;;;;;;;;10352650;28;20499;-74
2023/12/20 14:59:56;;;;;;;8.00;2.00;;;;;;;;;;10351206;28;20470;-75
2023/12/20 15:04:56;;;;;;;5.70;2.07;;;;;;;;;;10355265;28;20564;-76
2023/12/20 15:09:56;;;;;;;3.87;2.00;;;;;;;;;;10352229;28;20198;-74
2023/12/20 15:14:57;;;;;;;4.97;2.20;;;;;;;;;;10354812;28;20198;-76
2023/12/20 15:19:57;;;;;;;3.67;1.90;;;;;;;;;;10354153;28;20217;-76
2023/12/20 15:24:57;;;;;;;3.07;2.00;;;;;;;;;;10357314;28;20244;-76
2023/12/20 15:29:57;;;;;;;4.10;2.27;;;;;;;;;;10360464;28;20225;-75
2023/12/20 15:34:57;;;;;;;3.90;1.70;;;;;;;;;;10362023;28;20205;-76
2023/12/20 15:39:58;;;;;;;4.53;1.93;;;;;;;;;;10359265;28;20272;-76
2023/12/20 15:44:58;;;;;;;4.33;2.10;;;;;;;;;;10361857;28;20189;-76
2023/12/20 15:49:58;;;;;;;4.00;2.00;;;;;;;;;;10363471;28;20453;-75
2023/12/20 15:54:58;;;;;;;3.57;2.10;;;;;;;;;;10362061;28;20672;-76
2023/12/20 15:59:59;;;;;;;5.17;2.23;;;;;;;;;;10360765;28;20233;-75
2023/12/20 16:04:59;;;;;;;2.97;1.77;;;;;;;;;;10359862;28;20209;-76
2023/12/20 16:10:00;;;;;;;3.47;1.70;;;;;;;;;;10357784;28;20248;-76
2023/12/20 16:15:01;;;;;;;1.80;1.70;;;;;;;;;;10360296;28;20228;-76
2023/12/20 16:20:01;;;;;;;4.60;2.53;;;;;;;;;;10362374;28;20221;-76
2023/12/20 16:25:01;;;;;;;2.50;1.83;;;;;;;;;;10361461;28;20206;-76
2023/12/20 16:30:02;;;;;;;6.53;1.93;;;;;;;;;;10361653;28;20476;-76
2023/12/20 16:35:03;;;;;;;2.50;1.70;;;;;;;;;;10361146;28;20193;-76
2023/12/20 16:40:06;;;;;;;3.33;1.90;;;;;;;;;;10362505;28;20217;-76
2023/12/20 16:45:07;;;;;;;4.63;2.07;;;;;;;;;;10361065;28;20178;-76
2023/12/20 16:50:08;;;;;;;3.10;1.87;;;;;;;;;;10357966;28;20600;-75
2023/12/20 16:55:09;;;;;;;7.73;3.43;;;;;;;;;;10360510;28;20192;-76
2023/12/20 17:00:10;;;;;;;2.83;1.60;;;;;;;;;;10355070;28;20224;-76
2023/12/20 17:05:10;;;;;;;3.90;2.10;;;;;;;;;;10356712;28;20189;-76
2023/12/20 17:10:10;;;;;;;10.87;5.67;;;;;;;;;;10358998;28;20663;-75
2023/12/20 17:15:11;;;;;;;19.03;7.57;;;;;;;;;;10358791;28;20200;-76
2023/12/20 17:20:11;;;;;;;10.83;4.50;;;;;;;;;;10359237;28;20296;-75
2023/12/20 17:25:13;;;;;;;14.67;10.47;;;;;;;;;;10357997;28;20219;-75
2023/12/20 17:30:13;;;;;;;7.90;2.03;;;;;;;;;;10359134;28;20260;-76
2023/12/20 17:35:50;;;;;;;3.97;1.97;;;;;;;;;;10353957;28;20681;-76
2023/12/20 17:40:55;;;;;;;4.03;2.10;;;;;;;;;;10348582;28;20213;-74
2023/12/20 17:52:08;;;;;;;7.03;2.33;;;;;;;;;;10354457;28;20198;-74
2023/12/20 17:57:09;;;;;;;8.33;2.50;;;;;;;;;;10353749;28;20297;-74
2023/12/20 18:02:09;;;;;;;4.03;2.20;;;;;;;;;;10354783;28;20720;-75
2023/12/20 18:07:10;;;;;;;2.23;1.97;;;;;;;;;;10354157;28;20189;-75
2023/12/20 18:12:10;;;;;;;4.87;2.87;;;;;;;;;;10351834;28;20196;-74
2023/12/20 18:17:10;;;;;;;7.43;3.23;;;;;;;;;;10340671;28;20224;-74
2023/12/20 18:22:11;;;;;;;4.73;2.53;;;;;;;;;;10341270;28;20221;-75
2023/12/20 18:27:11;;;;;;;5.17;2.80;;;;;;;;;;10336311;28;20244;-72
2023/12/20 18:32:11;;;;;;;8.50;3.00;;;;;;;;;;10340221;28;20201;-72
2023/12/20 18:37:11;;;;;;;4.37;2.90;;;;;;;;;;10340403;28;20205;-72
2023/12/20 18:42:12;;;;;;;7.93;3.63;;;;;;;;;;10340407;28;20217;-72
2023/12/20 18:47:12;;;;;;;5.57;2.77;;;;;;;;;;10339600;28;20197;-73
2023/12/20 18:52:12;;;;;;;5.70;3.00;;;;;;;;;;10340419;28;20438;-72
2023/12/20 18:57:12;;;;;;;3.77;3.30;;;;;;;;;;10341278;28;20219;-72
2023/12/20 19:02:13;;;;;;;4.87;2.63;;;;;;;;;;10341204;28;20452;-72
2023/12/20 19:07:13;;;;;;;5.30;2.50;;;;;;;;;;10339939;28;20440;-71
2023/12/20 19:12:14;;;;;;;3.92;2.50;;;;;;;;;;10340322;28;20220;-71
2023/12/20 19:17:14;;;;;;;4.50;2.30;;;;;;;;;;10340535;28;20200;-71
2023/12/20 19:22:15;;;;;;;5.80;2.50;;;;;;;;;;10339671;28;20197;-71
2023/12/20 19:27:15;;;;;;;5.77;2.60;;;;;;;;;;10340321;28;20472;-74
2023/12/20 19:32:15;;;;;;;7.23;2.50;;;;;;;;;;10342441;28;20225;-75
2023/12/20 19:37:17;;;;;;;3.60;2.37;;;;;;;;;;10342426;28;20200;-73
2023/12/20 19:42:19;;;;;;;6.07;2.90;;;;;;;;;;10333780;28;20193;-74
2023/12/20 19:47:20;;;;;;;2.67;2.47;;;;;;;;;;10329718;28;20205;-75
2023/12/20 19:52:20;;;;;;;3.53;2.90;;;;;;;;;;10327065;28;20231;-75
2023/12/20 19:57:21;;;;;;;2.73;2.53;;;;;;;;;;10329504;28;20438;-75
2023/12/20 20:02:21;;;;;;;3.50;2.20;;;;;;;;;;10326300;28;20186;-76
2023/12/20 20:07:23;;;;;;;3.20;2.20;;;;;;;;;;10336464;28;20534;-75
2023/12/20 20:12:23;;;;;;;3.73;1.93;;;;;;;;;;10356808;28;20242;-75
2023/12/20 20:17:23;;;;;;;2.33;1.50;;;;;;;;;;10360077;28;20239;-75
2023/12/20 20:22:23;;;;;;;1.70;1.60;;;;;;;;;;10360150;28;20197;-75
2023/12/20 20:27:24;;;;;;;1.70;1.60;;;;;;;;;;10359796;28;20367;-74
2023/12/20 20:32:24;;;;;;;2.20;1.80;;;;;;;;;;10359658;28;20626;-75
2023/12/20 20:37:24;;;;;;;1.70;1.60;;;;;;;;;;10359079;28;20436;-75
2023/12/20 20:42:25;;;;;;;2.23;2.03;;;;;;;;;;10358182;28;20185;-75
2023/12/20 20:47:25;;;;;;;2.33;1.53;;;;;;;;;;10351996;28;20193;-75
2023/12/20 20:52:25;;;;;;;1.50;1.40;;;;;;;;;;10359889;28;20216;-74
2023/12/20 20:57:25;;;;;;;1.90;1.80;;;;;;;;;;10355416;28;20553;-75
2023/12/20 21:02:26;;;;;;;3.17;1.50;;;;;;;;;;10358128;28;20239;-75
2023/12/20 21:07:26;;;;;;;1.07;1.00;;;;;;;;;;10358446;28;20228;-75
2023/12/20 21:12:28;;;;;;;1.13;1.10;;;;;;;;;;10354175;28;20243;-75
2023/12/20 21:17:28;;;;;;;2.50;1.50;;;;;;;;;;10339303;28;20276;-75
2023/12/20 21:22:28;;;;;;;2.00;1.80;;;;;;;;;;10335099;28;20200;-75
2023/12/20 21:27:30;;;;;;;1.90;1.20;;;;;;;;;;10357323;28;20241;-75
2023/12/20 21:32:30;;;;;;;3.63;1.60;;;;;;;;;;10357220;28;20221;-75
2023/12/20 21:37:30;;;;;;;3.00;1.70;;;;;;;;;;10357275;28;20239;-75
2023/12/20 21:42:31;;;;;;;6.37;2.10;;;;;;;;;;10357451;28;20185;-75
2023/12/20 21:47:31;;;;;;;1.73;1.30;;;;;;;;;;10357070;28;20201;-75
2023/12/20 21:52:31;;;;;;;1.50;1.40;;;;;;;;;;10357207;28;20256;-75
2023/12/20 21:57:32;;;;;;;2.40;1.30;;;;;;;;;;10357553;28;20185;-75
2023/12/20 22:02:32;;;;;;;2.00;1.80;;;;;;;;;;10357588;28;20189;-75
2023/12/20 22:07:32;;;;;;;2.13;1.37;;;;;;;;;;10357933;28;20652;-75
2023/12/20 22:12:32;;;;;;;1.73;1.40;;;;;;;;;;10357275;28;20236;-75
2023/12/20 22:17:32;;;;;;;1.10;1.10;;;;;;;;;;10347330;28;20462;-76
2023/12/20 22:22:33;;;;;;;1.37;1.23;;;;;;;;;;10356603;28;20280;-75
2023/12/20 22:27:33;;;;;;;2.40;1.30;;;;;;;;;;10356761;28;20291;-75
2023/12/20 22:32:33;;;;;;;1.43;1.10;;;;;;;;;;10351132;28;20220;-75
2023/12/20 22:37:33;;;;;;;1.40;1.23;;;;;;;;;;10352648;28;20553;-76
2023/12/20 22:42:33;;;;;;;2.50;1.20;;;;;;;;;;10339575;28;20189;-75
2023/12/20 22:47:34;;;;;;;2.37;1.00;;;;;;;;;;10357719;28;20549;-75
2023/12/20 22:52:34;;;;;;;1.47;1.37;;;;;;;;;;10349786;28;20307;-75
2023/12/20 22:57:34;;;;;;;2.70;1.40;;;;;;;;;;10355530;28;20201;-74
2023/12/20 23:02:34;;;;;;;6.13;2.30;;;;;;;;;;10353149;28;20204;-74
2023/12/20 23:07:34;;;;;;;1.37;1.20;;;;;;;;;;10356802;28;20244;-74
2023/12/20 23:12:36;;;;;;;2.03;1.30;;;;;;;;;;10355845;28;20228;-75
2023/12/20 23:17:36;;;;;;;1.67;1.30;;;;;;;;;;10370587;28;20192;-74
2023/12/20 23:22:36;;;;;;;0.97;0.97;;;;;;;;;;10355565;28;20539;-75
2023/12/20 23:27:36;;;;;;;1.50;1.40;;;;;;;;;;10353967;28;20240;-74
2023/12/20 23:32:37;;;;;;;1.67;1.13;;;;;;;;;;10351750;28;20235;-75
2023/12/20 23:37:37;;;;;;;1.90;1.10;;;;;;;;;;10355178;28;20189;-75
2023/12/20 23:42:37;;;;;;;2.93;1.00;;;;;;;;;;10350365;28;20587;-75
2023/12/20 23:47:38;;;;;;;1.27;1.17;;;;;;;;;;10375271;28;20639;-75
2023/12/20 23:52:38;;;;;;;1.10;1.10;;;;;;;;;;10363535;28;20633;-74
2023/12/20 23:57:39;;;;;;;2.63;1.23;;;;;;;;;;10363584;28;20659;-74
